sensor_id;sensor_type;location;lat;lon;timestamp;temperature;humidity
7704;DHT22;3894;49.700;10.770;2023-04-25T00:02:22;8.30;99.90
7704;DHT22;3894;49.700;10.770;2023-04-25T00:04:48;8.30;99.90
7704;DHT22;3894;49.700;10.770;2023-04-25T00:07:14;8.30;99.90
7704;DHT22;3894;49.700;10.770;2023-04-25T00:09:39;8.30;99.90
7704;DHT22;3894;49.700;10.770;2023-04-25T00:12:06;8.30;99.90
7704;DHT22;3894;49.700;10.770;2023-04-25T00:14:31;8.30;99.90
7704;DHT22;3894;49.700;10.770;2023-04-25T00:16:59;8.30;99.90
7704;DHT22;3894;49.700;10.770;2023-04-25T00:19:26;8.30;99.90
7704;DHT22;3894;49.700;10.770;2023-04-25T00:21:56;8.30;99.90
7704;DHT22;3894;49.700;10.770;2023-04-25T00:24:22;8.30;99.90
7704;DHT22;3894;49.700;10.770;2023-04-25T00:26:47;8.30;99.90
7704;DHT22;3894;49.700;10.770;2023-04-25T00:29:13;8.30;99.90
7704;DHT22;3894;49.700;10.770;2023-04-25T00:31:38;8.30;99.90
7704;DHT22;3894;49.700;10.770;2023-04-25T00:34:04;8.30;99.90
7704;DHT22;3894;49.700;10.770;2023-04-25T00:36:29;8.30;99.90
7704;DHT22;3894;49.700;10.770;2023-04-25T00:38:55;8.20;99.90
7704;DHT22;3894;49.700;10.770;2023-04-25T00:41:21;8.20;99.90
7704;DHT22;3894;49.700;10.770;2023-04-25T00:43:48;8.20;99.90
7704;DHT22;3894;49.700;10.770;2023-04-25T00:46:14;8.20;99.90
7704;DHT22;3894;49.700;10.770;2023-04-25T00:48:40;8.20;99.90
7704;DHT22;3894;49.700;10.770;2023-04-25T00:51:06;8.20;99.90
7704;DHT22;3894;49.700;10.770;2023-04-25T00:53:32;8.20;99.90
7704;DHT22;3894;49.700;10.770;2023-04-25T00:55:58;8.20;99.90
7704;DHT22;3894;49.700;10.770;2023-04-25T00:58:24;8.20;99.90
7704;DHT22;3894;49.700;10.770;2023-04-25T01:00:51;8.20;99.90
7704;DHT22;3894;49.700;10.770;2023-04-25T01:03:17;8.20;99.90
7704;DHT22;3894;49.700;10.770;2023-04-25T01:05:45;8.20;99.90
7704;DHT22;3894;49.700;10.770;2023-04-25T01:08:10;8.20;99.90
7704;DHT22;3894;49.700;10.770;2023-04-25T01:10:37;8.20;99.90
7704;DHT22;3894;49.700;10.770;2023-04-25T01:13:03;8.20;99.90
7704;DHT22;3894;49.700;10.770;2023-04-25T01:15:29;8.20;99.90
7704;DHT22;3894;49.700;10.770;2023-04-25T01:17:54;8.20;99.90
7704;DHT22;3894;49.700;10.770;2023-04-25T01:20:24;8.20;99.90
7704;DHT22;3894;49.700;10.770;2023-04-25T01:22:51;8.10;99.90
7704;DHT22;3894;49.700;10.770;2023-04-25T01:25:17;8.10;99.90
7704;DHT22;3894;49.700;10.770;2023-04-25T01:27:43;8.10;99.90
7704;DHT22;3894;49.700;10.770;2023-04-25T01:30:09;8.20;99.90
7704;DHT22;3894;49.700;10.770;2023-04-25T01:32:35;8.20;99.90
7704;DHT22;3894;49.700;10.770;2023-04-25T01:35:08;8.10;99.90
7704;DHT22;3894;49.700;10.770;2023-04-25T01:37:38;8.10;99.90
7704;DHT22;3894;49.700;10.770;2023-04-25T01:40:18;8.10;99.90
7704;DHT22;3894;49.700;10.770;2023-04-25T01:45:49;8.00;99.90
7704;DHT22;3894;49.700;10.770;2023-04-25T01:48:18;8.00;99.90
7704;DHT22;3894;49.700;10.770;2023-04-25T01:50:54;8.00;99.90
7704;DHT22;3894;49.700;10.770;2023-04-25T01:53:26;8.00;99.90
7704;DHT22;3894;49.700;10.770;2023-04-25T01:56:11;8.00;99.90
7704;DHT22;3894;49.700;10.770;2023-04-25T01:59:04;8.00;99.90
7704;DHT22;3894;49.700;10.770;2023-04-25T02:01:47;8.00;99.90
7704;DHT22;3894;49.700;10.770;2023-04-25T02:04:18;8.00;99.90
7704;DHT22;3894;49.700;10.770;2023-04-25T02:09:48;8.00;99.90
7704;DHT22;3894;49.700;10.770;2023-04-25T02:12:14;8.00;99.90
7704;DHT22;3894;49.700;10.770;2023-04-25T02:14:39;8.00;99.90
7704;DHT22;3894;49.700;10.770;2023-04-25T02:17:16;8.00;99.90
7704;DHT22;3894;49.700;10.770;2023-04-25T02:19:59;8.00;99.90
7704;DHT22;3894;49.700;10.770;2023-04-25T02:25:45;8.00;99.90
7704;DHT22;3894;49.700;10.770;2023-04-25T02:28:30;8.00;99.90
7704;DHT22;3894;49.700;10.770;2023-04-25T02:30:59;8.00;99.90
7704;DHT22;3894;49.700;10.770;2023-04-25T02:33:25;8.00;99.90
7704;DHT22;3894;49.700;10.770;2023-04-25T02:36:16;8.10;99.90
7704;DHT22;3894;49.700;10.770;2023-04-25T02:38:48;8.10;99.90
7704;DHT22;3894;49.700;10.770;2023-04-25T02:41:20;8.00;99.90
7704;DHT22;3894;49.700;10.770;2023-04-25T02:43:49;8.00;99.90
7704;DHT22;3894;49.700;10.770;2023-04-25T02:46:14;8.00;99.90
7704;DHT22;3894;49.700;10.770;2023-04-25T02:48:40;7.90;99.90
7704;DHT22;3894;49.700;10.770;2023-04-25T02:51:16;7.80;99.90
7704;DHT22;3894;49.700;10.770;2023-04-25T02:54:04;7.80;99.90
7704;DHT22;3894;49.700;10.770;2023-04-25T02:56:33;7.80;99.90
7704;DHT22;3894;49.700;10.770;2023-04-25T02:58:59;7.80;99.90
7704;DHT22;3894;49.700;10.770;2023-04-25T03:01:33;7.80;99.90
7704;DHT22;3894;49.700;10.770;2023-04-25T03:04:04;7.70;99.90
7704;DHT22;3894;49.700;10.770;2023-04-25T03:06:36;7.70;99.90
7704;DHT22;3894;49.700;10.770;2023-04-25T03:09:01;7.70;99.90
7704;DHT22;3894;49.700;10.770;2023-04-25T03:11:35;7.70;99.90
7704;DHT22;3894;49.700;10.770;2023-04-25T03:14:12;7.80;99.90
7704;DHT22;3894;49.700;10.770;2023-04-25T03:16:45;7.80;99.90
7704;DHT22;3894;49.700;10.770;2023-04-25T03:19:34;7.80;99.90
7704;DHT22;3894;49.700;10.770;2023-04-25T03:22:02;7.80;99.90
7704;DHT22;3894;49.700;10.770;2023-04-25T03:24:34;7.80;99.90
7704;DHT22;3894;49.700;10.770;2023-04-25T03:27:39;7.80;99.90
7704;DHT22;3894;49.700;10.770;2023-04-25T03:30:14;7.80;99.90
7704;DHT22;3894;49.700;10.770;2023-04-25T03:32:40;7.80;99.90
7704;DHT22;3894;49.700;10.770;2023-04-25T03:35:06;7.80;99.90
7704;DHT22;3894;49.700;10.770;2023-04-25T03:37:38;7.80;99.90
7704;DHT22;3894;49.700;10.770;2023-04-25T03:40:09;7.80;99.90
7704;DHT22;3894;49.700;10.770;2023-04-25T03:42:35;7.80;99.90
7704;DHT22;3894;49.700;10.770;2023-04-25T03:45:01;7.70;99.90
7704;DHT22;3894;49.700;10.770;2023-04-25T03:47:27;7.70;99.90
7704;DHT22;3894;49.700;10.770;2023-04-25T03:49:52;7.60;99.90
7704;DHT22;3894;49.700;10.770;2023-04-25T03:52:24;7.60;99.90
7704;DHT22;3894;49.700;10.770;2023-04-25T03:54:50;7.60;99.90
7704;DHT22;3894;49.700;10.770;2023-04-25T03:57:20;7.60;99.90
7704;DHT22;3894;49.700;10.770;2023-04-25T03:59:46;7.60;99.90
7704;DHT22;3894;49.700;10.770;2023-04-25T04:02:12;7.50;99.90
7704;DHT22;3894;49.700;10.770;2023-04-25T04:04:38;7.50;99.90
7704;DHT22;3894;49.700;10.770;2023-04-25T04:07:14;7.50;99.90
7704;DHT22;3894;49.700;10.770;2023-04-25T04:09:40;7.50;99.90
7704;DHT22;3894;49.700;10.770;2023-04-25T04:12:06;7.50;99.90
7704;DHT22;3894;49.700;10.770;2023-04-25T04:14:36;7.50;99.90
7704;DHT22;3894;49.700;10.770;2023-04-25T04:17:05;7.50;99.90
7704;DHT22;3894;49.700;10.770;2023-04-25T04:19:45;7.50;99.90
7704;DHT22;3894;49.700;10.770;2023-04-25T04:22:12;7.50;99.90
7704;DHT22;3894;49.700;10.770;2023-04-25T04:24:38;7.40;99.90
7704;DHT22;3894;49.700;10.770;2023-04-25T04:27:09;7.40;99.90
7704;DHT22;3894;49.700;10.770;2023-04-25T04:29:38;7.40;99.90
7704;DHT22;3894;49.700;10.770;2023-04-25T04:32:16;7.40;99.90
7704;DHT22;3894;49.700;10.770;2023-04-25T04:34:42;7.40;99.90
7704;DHT22;3894;49.700;10.770;2023-04-25T04:37:08;7.40;99.90
7704;DHT22;3894;49.700;10.770;2023-04-25T04:39:35;7.40;99.90
7704;DHT22;3894;49.700;10.770;2023-04-25T04:42:11;7.30;99.90
7704;DHT22;3894;49.700;10.770;2023-04-25T04:44:39;7.30;99.90
7704;DHT22;3894;49.700;10.770;2023-04-25T04:47:06;7.30;99.90
7704;DHT22;3894;49.700;10.770;2023-04-25T04:49:34;7.30;99.90
7704;DHT22;3894;49.700;10.770;2023-04-25T04:52:01;7.30;99.90
7704;DHT22;3894;49.700;10.770;2023-04-25T04:54:28;7.30;99.90
7704;DHT22;3894;49.700;10.770;2023-04-25T04:56:54;7.30;99.90
7704;DHT22;3894;49.700;10.770;2023-04-25T04:59:20;7.40;99.90
7704;DHT22;3894;49.700;10.770;2023-04-25T05:01:46;7.40;99.90
7704;DHT22;3894;49.700;10.770;2023-04-25T05:04:12;7.40;99.90
7704;DHT22;3894;49.700;10.770;2023-04-25T05:06:47;7.40;99.90
7704;DHT22;3894;49.700;10.770;2023-04-25T05:09:16;7.50;99.90
7704;DHT22;3894;49.700;10.770;2023-04-25T05:11:42;7.50;99.90
7704;DHT22;3894;49.700;10.770;2023-04-25T05:14:08;7.50;99.90
7704;DHT22;3894;49.700;10.770;2023-04-25T05:16:34;7.60;99.90
7704;DHT22;3894;49.700;10.770;2023-04-25T05:19:01;7.50;99.90
7704;DHT22;3894;49.700;10.770;2023-04-25T05:21:27;7.60;99.90
7704;DHT22;3894;49.700;10.770;2023-04-25T05:23:54;7.60;99.90
7704;DHT22;3894;49.700;10.770;2023-04-25T05:26:20;7.50;99.90
7704;DHT22;3894;49.700;10.770;2023-04-25T05:28:51;7.50;99.90
7704;DHT22;3894;49.700;10.770;2023-04-25T05:31:17;7.50;99.90
7704;DHT22;3894;49.700;10.770;2023-04-25T05:33:46;7.50;99.90
7704;DHT22;3894;49.700;10.770;2023-04-25T05:36:12;7.50;99.90
7704;DHT22;3894;49.700;10.770;2023-04-25T05:38:44;7.50;99.90
7704;DHT22;3894;49.700;10.770;2023-04-25T05:41:13;7.60;99.90
7704;DHT22;3894;49.700;10.770;2023-04-25T05:43:39;7.60;99.90
7704;DHT22;3894;49.700;10.770;2023-04-25T05:46:10;7.70;99.90
7704;DHT22;3894;49.700;10.770;2023-04-25T05:48:39;7.70;99.90
7704;DHT22;3894;49.700;10.770;2023-04-25T05:51:17;7.60;99.90
7704;DHT22;3894;49.700;10.770;2023-04-25T05:53:44;7.60;99.90
7704;DHT22;3894;49.700;10.770;2023-04-25T05:56:10;7.60;99.90
7704;DHT22;3894;49.700;10.770;2023-04-25T05:58:39;7.70;99.90
7704;DHT22;3894;49.700;10.770;2023-04-25T06:01:16;7.70;99.90
7704;DHT22;3894;49.700;10.770;2023-04-25T06:03:45;7.80;99.90
7704;DHT22;3894;49.700;10.770;2023-04-25T06:06:16;7.80;99.90
7704;DHT22;3894;49.700;10.770;2023-04-25T06:08:45;7.80;99.90
7704;DHT22;3894;49.700;10.770;2023-04-25T06:11:11;7.80;99.90
7704;DHT22;3894;49.700;10.770;2023-04-25T06:13:49;7.80;99.90
7704;DHT22;3894;49.700;10.770;2023-04-25T06:16:18;7.80;99.90
7704;DHT22;3894;49.700;10.770;2023-04-25T06:18:44;7.80;99.90
7704;DHT22;3894;49.700;10.770;2023-04-25T06:21:18;7.80;99.90
7704;DHT22;3894;49.700;10.770;2023-04-25T06:23:44;7.80;99.90
7704;DHT22;3894;49.700;10.770;2023-04-25T06:26:19;7.80;99.90
7704;DHT22;3894;49.700;10.770;2023-04-25T06:28:50;7.80;99.90
7704;DHT22;3894;49.700;10.770;2023-04-25T06:31:16;7.80;99.90
7704;DHT22;3894;49.700;10.770;2023-04-25T06:33:42;7.70;99.90
7704;DHT22;3894;49.700;10.770;2023-04-25T06:36:08;7.70;99.90
7704;DHT22;3894;49.700;10.770;2023-04-25T06:38:41;7.80;99.90
7704;DHT22;3894;49.700;10.770;2023-04-25T06:41:07;7.80;99.90
7704;DHT22;3894;49.700;10.770;2023-04-25T06:43:35;7.70;99.90
7704;DHT22;3894;49.700;10.770;2023-04-25T06:46:04;7.70;99.90
7704;DHT22;3894;49.700;10.770;2023-04-25T06:48:30;7.80;99.90
7704;DHT22;3894;49.700;10.770;2023-04-25T06:50:56;7.80;99.90
7704;DHT22;3894;49.700;10.770;2023-04-25T06:53:26;7.80;99.90
7704;DHT22;3894;49.700;10.770;2023-04-25T06:55:51;7.90;99.90
7704;DHT22;3894;49.700;10.770;2023-04-25T06:58:20;7.90;99.90
7704;DHT22;3894;49.700;10.770;2023-04-25T07:00:50;7.90;99.90
7704;DHT22;3894;49.700;10.770;2023-04-25T07:03:22;7.90;99.90
7704;DHT22;3894;49.700;10.770;2023-04-25T07:05:49;8.00;99.90
7704;DHT22;3894;49.700;10.770;2023-04-25T07:08:15;8.10;99.90
7704;DHT22;3894;49.700;10.770;2023-04-25T07:10:42;8.10;99.90
7704;DHT22;3894;49.700;10.770;2023-04-25T07:13:13;8.10;99.90
7704;DHT22;3894;49.700;10.770;2023-04-25T07:15:46;8.10;99.90
7704;DHT22;3894;49.700;10.770;2023-04-25T07:18:13;8.10;99.90
7704;DHT22;3894;49.700;10.770;2023-04-25T07:20:39;8.10;99.90
7704;DHT22;3894;49.700;10.770;2023-04-25T07:23:08;8.00;99.90
7704;DHT22;3894;49.700;10.770;2023-04-25T07:25:34;7.90;99.90
7704;DHT22;3894;49.700;10.770;2023-04-25T07:28:00;7.90;99.90
7704;DHT22;3894;49.700;10.770;2023-04-25T07:30:26;7.90;99.90
7704;DHT22;3894;49.700;10.770;2023-04-25T07:32:51;7.90;99.90
7704;DHT22;3894;49.700;10.770;2023-04-25T07:35:17;7.90;99.90
7704;DHT22;3894;49.700;10.770;2023-04-25T07:37:43;8.00;99.90
7704;DHT22;3894;49.700;10.770;2023-04-25T07:40:09;8.10;99.90
7704;DHT22;3894;49.700;10.770;2023-04-25T07:42:35;8.10;99.90
7704;DHT22;3894;49.700;10.770;2023-04-25T07:45:01;8.20;99.90
7704;DHT22;3894;49.700;10.770;2023-04-25T07:47:27;8.30;99.90
7704;DHT22;3894;49.700;10.770;2023-04-25T07:49:52;8.40;99.90
7704;DHT22;3894;49.700;10.770;2023-04-25T07:52:18;8.30;99.90
7704;DHT22;3894;49.700;10.770;2023-04-25T07:54:43;8.40;99.90
7704;DHT22;3894;49.700;10.770;2023-04-25T07:57:09;9.10;99.90
7704;DHT22;3894;49.700;10.770;2023-04-25T07:59:35;9.40;99.90
7704;DHT22;3894;49.700;10.770;2023-04-25T08:02:00;9.50;99.90
7704;DHT22;3894;49.700;10.770;2023-04-25T08:04:26;9.60;99.90
7704;DHT22;3894;49.700;10.770;2023-04-25T08:06:52;9.70;99.90
7704;DHT22;3894;49.700;10.770;2023-04-25T08:09:19;9.50;99.90
7704;DHT22;3894;49.700;10.770;2023-04-25T08:11:45;9.40;99.90
7704;DHT22;3894;49.700;10.770;2023-04-25T08:14:12;9.60;99.90
7704;DHT22;3894;49.700;10.770;2023-04-25T08:16:38;9.90;99.90
7704;DHT22;3894;49.700;10.770;2023-04-25T08:19:03;10.30;99.90
7704;DHT22;3894;49.700;10.770;2023-04-25T08:21:30;10.60;99.90
7704;DHT22;3894;49.700;10.770;2023-04-25T08:23:57;11.00;99.90
7704;DHT22;3894;49.700;10.770;2023-04-25T08:26:44;11.10;99.90
7704;DHT22;3894;49.700;10.770;2023-04-25T08:29:10;11.20;99.90
7704;DHT22;3894;49.700;10.770;2023-04-25T08:31:37;11.20;99.90
7704;DHT22;3894;49.700;10.770;2023-04-25T08:34:02;11.10;99.90
7704;DHT22;3894;49.700;10.770;2023-04-25T08:36:28;11.10;99.90
7704;DHT22;3894;49.700;10.770;2023-04-25T08:38:53;11.00;99.90
7704;DHT22;3894;49.700;10.770;2023-04-25T08:41:19;10.90;99.90
7704;DHT22;3894;49.700;10.770;2023-04-25T08:43:48;10.80;99.90
7704;DHT22;3894;49.700;10.770;2023-04-25T08:46:17;10.80;99.90
7704;DHT22;3894;49.700;10.770;2023-04-25T08:48:44;11.00;99.90
7704;DHT22;3894;49.700;10.770;2023-04-25T08:51:15;11.30;99.90
7704;DHT22;3894;49.700;10.770;2023-04-25T08:53:41;11.30;99.90
7704;DHT22;3894;49.700;10.770;2023-04-25T08:56:08;11.30;99.90
7704;DHT22;3894;49.700;10.770;2023-04-25T08:58:35;11.70;99.90
7704;DHT22;3894;49.700;10.770;2023-04-25T09:01:02;11.70;99.90
7704;DHT22;3894;49.700;10.770;2023-04-25T09:03:28;11.60;99.90
7704;DHT22;3894;49.700;10.770;2023-04-25T09:05:55;11.20;99.90
7704;DHT22;3894;49.700;10.770;2023-04-25T09:08:21;10.70;99.90
7704;DHT22;3894;49.700;10.770;2023-04-25T09:10:46;10.80;99.90
7704;DHT22;3894;49.700;10.770;2023-04-25T09:13:24;11.00;99.90
7704;DHT22;3894;49.700;10.770;2023-04-25T09:15:52;11.10;99.90
7704;DHT22;3894;49.700;10.770;2023-04-25T09:18:28;11.50;99.90
7704;DHT22;3894;49.700;10.770;2023-04-25T09:20:55;11.70;99.90
7704;DHT22;3894;49.700;10.770;2023-04-25T09:23:23;11.80;99.90
7704;DHT22;3894;49.700;10.770;2023-04-25T09:25:53;12.00;99.90
7704;DHT22;3894;49.700;10.770;2023-04-25T09:28:26;12.10;99.90
7704;DHT22;3894;49.700;10.770;2023-04-25T09:30:55;12.20;99.90
7704;DHT22;3894;49.700;10.770;2023-04-25T09:33:32;11.70;99.90
7704;DHT22;3894;49.700;10.770;2023-04-25T09:36:04;11.60;99.90
7704;DHT22;3894;49.700;10.770;2023-04-25T09:38:32;11.60;99.90
7704;DHT22;3894;49.700;10.770;2023-04-25T09:40:58;11.60;99.90
7704;DHT22;3894;49.700;10.770;2023-04-25T09:43:24;11.60;99.90
7704;DHT22;3894;49.700;10.770;2023-04-25T09:45:51;11.90;99.90
7704;DHT22;3894;49.700;10.770;2023-04-25T09:48:18;11.80;99.90
7704;DHT22;3894;49.700;10.770;2023-04-25T09:50:45;11.60;99.90
7704;DHT22;3894;49.700;10.770;2023-04-25T09:53:13;11.20;99.90
7704;DHT22;3894;49.700;10.770;2023-04-25T09:55:39;11.10;99.90
7704;DHT22;3894;49.700;10.770;2023-04-25T09:58:05;11.40;99.90
7704;DHT22;3894;49.700;10.770;2023-04-25T10:00:34;12.00;99.90
7704;DHT22;3894;49.700;10.770;2023-04-25T10:03:04;12.00;99.90
7704;DHT22;3894;49.700;10.770;2023-04-25T10:05:32;12.40;99.90
7704;DHT22;3894;49.700;10.770;2023-04-25T10:08:02;12.60;99.90
7704;DHT22;3894;49.700;10.770;2023-04-25T10:10:29;12.60;99.90
7704;DHT22;3894;49.700;10.770;2023-04-25T10:12:58;12.80;99.90
7704;DHT22;3894;49.700;10.770;2023-04-25T10:15:24;13.00;99.90
7704;DHT22;3894;49.700;10.770;2023-04-25T10:17:50;12.60;99.90
7704;DHT22;3894;49.700;10.770;2023-04-25T10:20:16;12.30;99.90
7704;DHT22;3894;49.700;10.770;2023-04-25T10:22:43;12.00;99.90
7704;DHT22;3894;49.700;10.770;2023-04-25T10:25:10;11.70;99.90
7704;DHT22;3894;49.700;10.770;2023-04-25T10:27:36;11.40;99.90
7704;DHT22;3894;49.700;10.770;2023-04-25T10:30:08;11.20;99.90
7704;DHT22;3894;49.700;10.770;2023-04-25T10:32:36;11.30;99.90
7704;DHT22;3894;49.700;10.770;2023-04-25T10:35:11;11.60;99.90
7704;DHT22;3894;49.700;10.770;2023-04-25T10:37:37;11.60;99.90
7704;DHT22;3894;49.700;10.770;2023-04-25T10:40:09;11.50;99.90
7704;DHT22;3894;49.700;10.770;2023-04-25T10:42:35;11.30;99.90
7704;DHT22;3894;49.700;10.770;2023-04-25T10:45:02;11.10;99.90
7704;DHT22;3894;49.700;10.770;2023-04-25T10:47:36;11.00;99.90
7704;DHT22;3894;49.700;10.770;2023-04-25T10:50:07;10.90;99.90
7704;DHT22;3894;49.700;10.770;2023-04-25T10:52:33;11.00;99.90
7704;DHT22;3894;49.700;10.770;2023-04-25T10:54:58;11.20;99.90
7704;DHT22;3894;49.700;10.770;2023-04-25T10:57:31;11.50;99.90
7704;DHT22;3894;49.700;10.770;2023-04-25T11:02:30;11.70;99.90
7704;DHT22;3894;49.700;10.770;2023-04-25T11:04:56;11.90;99.90
7704;DHT22;3894;49.700;10.770;2023-04-25T11:07:44;11.70;99.90
7704;DHT22;3894;49.700;10.770;2023-04-25T11:10:14;11.60;99.90
7704;DHT22;3894;49.700;10.770;2023-04-25T11:12:39;11.50;99.90
7704;DHT22;3894;49.700;10.770;2023-04-25T11:15:06;11.40;99.90
7704;DHT22;3894;49.700;10.770;2023-04-25T11:17:33;11.40;99.90
7704;DHT22;3894;49.700;10.770;2023-04-25T11:19:59;11.20;99.90
7704;DHT22;3894;49.700;10.770;2023-04-25T11:22:26;11.50;99.90
7704;DHT22;3894;49.700;10.770;2023-04-25T11:24:52;11.70;99.90
7704;DHT22;3894;49.700;10.770;2023-04-25T11:27:18;11.60;99.90
7704;DHT22;3894;49.700;10.770;2023-04-25T11:29:44;11.70;99.90
7704;DHT22;3894;49.700;10.770;2023-04-25T11:32:10;11.40;99.90
7704;DHT22;3894;49.700;10.770;2023-04-25T11:34:35;11.30;99.90
7704;DHT22;3894;49.700;10.770;2023-04-25T11:37:02;11.30;99.90
7704;DHT22;3894;49.700;10.770;2023-04-25T11:39:28;11.40;99.90
7704;DHT22;3894;49.700;10.770;2023-04-25T11:41:54;11.40;99.90
7704;DHT22;3894;49.700;10.770;2023-04-25T11:44:20;11.40;99.90
7704;DHT22;3894;49.700;10.770;2023-04-25T11:46:47;11.60;99.90
7704;DHT22;3894;49.700;10.770;2023-04-25T11:49:13;11.50;99.90
7704;DHT22;3894;49.700;10.770;2023-04-25T11:54:05;11.60;99.90
7704;DHT22;3894;49.700;10.770;2023-04-25T11:56:31;11.50;99.90
7704;DHT22;3894;49.700;10.770;2023-04-25T11:59:02;11.60;99.90
7704;DHT22;3894;49.700;10.770;2023-04-25T12:01:32;11.50;99.90
7704;DHT22;3894;49.700;10.770;2023-04-25T12:04:09;11.50;99.90
7704;DHT22;3894;49.700;10.770;2023-04-25T12:06:37;11.60;99.90
7704;DHT22;3894;49.700;10.770;2023-04-25T12:09:07;11.60;99.90
7704;DHT22;3894;49.700;10.770;2023-04-25T12:11:44;11.60;99.90
7704;DHT22;3894;49.700;10.770;2023-04-25T12:14:10;11.50;99.90
7704;DHT22;3894;49.700;10.770;2023-04-25T12:16:46;11.40;99.90
7704;DHT22;3894;49.700;10.770;2023-04-25T12:19:16;11.30;99.90
7704;DHT22;3894;49.700;10.770;2023-04-25T12:21:42;11.00;99.90
7704;DHT22;3894;49.700;10.770;2023-04-25T12:24:21;10.90;99.90
7704;DHT22;3894;49.700;10.770;2023-04-25T12:26:50;10.90;99.90
7704;DHT22;3894;49.700;10.770;2023-04-25T12:29:22;11.00;99.90
7704;DHT22;3894;49.700;10.770;2023-04-25T12:31:48;11.30;99.90
7704;DHT22;3894;49.700;10.770;2023-04-25T12:34:14;11.20;99.90
7704;DHT22;3894;49.700;10.770;2023-04-25T12:36:40;11.20;99.90
7704;DHT22;3894;49.700;10.770;2023-04-25T12:39:06;11.20;99.90
7704;DHT22;3894;49.700;10.770;2023-04-25T12:41:32;11.10;99.90
7704;DHT22;3894;49.700;10.770;2023-04-25T12:43:57;11.00;99.90
7704;DHT22;3894;49.700;10.770;2023-04-25T12:46:23;10.90;99.90
7704;DHT22;3894;49.700;10.770;2023-04-25T12:48:48;10.80;99.90
7704;DHT22;3894;49.700;10.770;2023-04-25T12:51:14;10.70;99.90
7704;DHT22;3894;49.700;10.770;2023-04-25T12:53:41;10.70;99.90
7704;DHT22;3894;49.700;10.770;2023-04-25T12:56:09;10.60;99.90
7704;DHT22;3894;49.700;10.770;2023-04-25T12:58:35;10.60;99.90
7704;DHT22;3894;49.700;10.770;2023-04-25T13:01:00;10.60;99.90
7704;DHT22;3894;49.700;10.770;2023-04-25T13:03:26;10.70;99.90
7704;DHT22;3894;49.700;10.770;2023-04-25T13:05:52;10.70;99.90
7704;DHT22;3894;49.700;10.770;2023-04-25T13:08:20;10.70;99.90
7704;DHT22;3894;49.700;10.770;2023-04-25T13:10:47;10.70;99.90
7704;DHT22;3894;49.700;10.770;2023-04-25T13:13:13;10.70;99.90
7704;DHT22;3894;49.700;10.770;2023-04-25T13:15:38;10.70;99.90
7704;DHT22;3894;49.700;10.770;2023-04-25T13:18:04;10.90;99.90
7704;DHT22;3894;49.700;10.770;2023-04-25T13:20:32;11.00;99.90
7704;DHT22;3894;49.700;10.770;2023-04-25T13:22:58;10.90;99.90
7704;DHT22;3894;49.700;10.770;2023-04-25T13:25:24;10.90;99.90
7704;DHT22;3894;49.700;10.770;2023-04-25T13:27:50;10.70;99.90
7704;DHT22;3894;49.700;10.770;2023-04-25T13:30:15;10.50;99.90
7704;DHT22;3894;49.700;10.770;2023-04-25T13:32:41;10.40;99.90
7704;DHT22;3894;49.700;10.770;2023-04-25T13:35:11;10.40;99.90
7704;DHT22;3894;49.700;10.770;2023-04-25T13:37:38;10.30;99.90
7704;DHT22;3894;49.700;10.770;2023-04-25T13:40:06;10.30;99.90
7704;DHT22;3894;49.700;10.770;2023-04-25T13:42:34;10.30;99.90
7704;DHT22;3894;49.700;10.770;2023-04-25T13:45:00;10.30;99.90
7704;DHT22;3894;49.700;10.770;2023-04-25T13:47:26;10.40;99.90
7704;DHT22;3894;49.700;10.770;2023-04-25T13:49:52;10.50;99.90
7704;DHT22;3894;49.700;10.770;2023-04-25T13:52:17;10.40;99.90
7704;DHT22;3894;49.700;10.770;2023-04-25T13:54:43;10.50;99.90
7704;DHT22;3894;49.700;10.770;2023-04-25T13:57:08;10.50;99.90
7704;DHT22;3894;49.700;10.770;2023-04-25T13:59:36;10.60;99.90
7704;DHT22;3894;49.700;10.770;2023-04-25T14:02:01;10.60;99.90
7704;DHT22;3894;49.700;10.770;2023-04-25T14:04:27;10.60;99.90
7704;DHT22;3894;49.700;10.770;2023-04-25T14:06:53;10.60;99.90
7704;DHT22;3894;49.700;10.770;2023-04-25T14:11:49;10.70;99.90
7704;DHT22;3894;49.700;10.770;2023-04-25T14:14:14;10.60;99.90
7704;DHT22;3894;49.700;10.770;2023-04-25T14:16:41;10.60;99.90
7704;DHT22;3894;49.700;10.770;2023-04-25T14:19:09;10.50;99.90
7704;DHT22;3894;49.700;10.770;2023-04-25T14:21:34;10.50;99.90
7704;DHT22;3894;49.700;10.770;2023-04-25T14:24:00;10.50;99.90
7704;DHT22;3894;49.700;10.770;2023-04-25T14:26:26;10.70;99.90
7704;DHT22;3894;49.700;10.770;2023-04-25T14:28:52;10.60;99.90
7704;DHT22;3894;49.700;10.770;2023-04-25T14:31:20;10.60;99.90
7704;DHT22;3894;49.700;10.770;2023-04-25T14:33:46;10.70;99.90
7704;DHT22;3894;49.700;10.770;2023-04-25T14:36:15;10.60;99.90
7704;DHT22;3894;49.700;10.770;2023-04-25T14:38:41;10.50;99.90
7704;DHT22;3894;49.700;10.770;2023-04-25T14:41:09;10.50;99.90
7704;DHT22;3894;49.700;10.770;2023-04-25T14:43:36;10.60;99.90
7704;DHT22;3894;49.700;10.770;2023-04-25T14:46:02;10.70;99.90
7704;DHT22;3894;49.700;10.770;2023-04-25T14:48:28;10.70;99.90
7704;DHT22;3894;49.700;10.770;2023-04-25T14:50:57;10.80;99.90
7704;DHT22;3894;49.700;10.770;2023-04-25T14:53:23;10.80;99.90
7704;DHT22;3894;49.700;10.770;2023-04-25T14:55:49;10.70;99.90
7704;DHT22;3894;49.700;10.770;2023-04-25T14:58:17;10.60;99.90
7704;DHT22;3894;49.700;10.770;2023-04-25T15:00:43;10.60;99.90
7704;DHT22;3894;49.700;10.770;2023-04-25T15:03:09;10.50;99.90
7704;DHT22;3894;49.700;10.770;2023-04-25T15:05:37;10.40;99.90
7704;DHT22;3894;49.700;10.770;2023-04-25T15:08:05;10.40;99.90
7704;DHT22;3894;49.700;10.770;2023-04-25T15:10:31;10.40;99.90
7704;DHT22;3894;49.700;10.770;2023-04-25T15:12:57;10.40;99.90
7704;DHT22;3894;49.700;10.770;2023-04-25T15:15:22;10.30;99.90
7704;DHT22;3894;49.700;10.770;2023-04-25T15:17:49;10.30;99.90
7704;DHT22;3894;49.700;10.770;2023-04-25T15:20:17;10.50;99.90
7704;DHT22;3894;49.700;10.770;2023-04-25T15:22:44;10.60;99.90
7704;DHT22;3894;49.700;10.770;2023-04-25T15:25:14;10.70;99.90
7704;DHT22;3894;49.700;10.770;2023-04-25T15:27:41;10.60;99.90
7704;DHT22;3894;49.700;10.770;2023-04-25T15:30:09;10.70;99.90
7704;DHT22;3894;49.700;10.770;2023-04-25T15:32:40;10.70;99.90
7704;DHT22;3894;49.700;10.770;2023-04-25T15:35:09;10.70;99.90
7704;DHT22;3894;49.700;10.770;2023-04-25T15:37:36;10.60;99.90
7704;DHT22;3894;49.700;10.770;2023-04-25T15:40:07;10.70;99.90
7704;DHT22;3894;49.700;10.770;2023-04-25T15:42:35;10.80;99.90
7704;DHT22;3894;49.700;10.770;2023-04-25T15:45:08;10.90;99.90
7704;DHT22;3894;49.700;10.770;2023-04-25T15:47:35;10.90;99.90
7704;DHT22;3894;49.700;10.770;2023-04-25T15:50:01;10.80;99.90
7704;DHT22;3894;49.700;10.770;2023-04-25T15:52:27;10.80;99.90
7704;DHT22;3894;49.700;10.770;2023-04-25T15:54:53;10.70;99.90
7704;DHT22;3894;49.700;10.770;2023-04-25T15:57:19;10.60;99.90
7704;DHT22;3894;49.700;10.770;2023-04-25T15:59:46;10.60;99.90
7704;DHT22;3894;49.700;10.770;2023-04-25T16:02:13;10.50;99.90
7704;DHT22;3894;49.700;10.770;2023-04-25T16:04:39;10.50;99.90
7704;DHT22;3894;49.700;10.770;2023-04-25T16:07:04;10.50;99.90
7704;DHT22;3894;49.700;10.770;2023-04-25T16:09:31;10.50;99.90
7704;DHT22;3894;49.700;10.770;2023-04-25T16:11:58;10.40;99.90
7704;DHT22;3894;49.700;10.770;2023-04-25T16:14:23;10.40;99.90
7704;DHT22;3894;49.700;10.770;2023-04-25T16:16:52;10.30;99.90
7704;DHT22;3894;49.700;10.770;2023-04-25T16:19:18;10.30;99.90